Time;durP1;ratioP1;P1;durP2;ratioP2;P2;SDS_P1;SDS_P2;PMS_P1;PMS_P2;Temp;Humidity;BMP_temperature;BMP_pressure;BME280_temperature;BME280_humidity;BME280_pressure;Samples;Min_cycle;Max_cycle;Signal;HPM_P1;HPM_P2
2022/09/24 00:01:55;;;;;;;7.78;4.53;;;;;;;8.35;58.80;95831.91;5026744;28;20075;-91
2022/09/24 00:04:23;;;;;;;10.50;4.43;;;;;;;8.30;58.15;95832.38;5026832;28;20427;-92
2022/09/24 00:06:49;;;;;;;6.03;4.43;;;;;;;8.26;57.45;95828.31;5009510;28;20033;-91
2022/09/24 00:09:16;;;;;;;6.75;4.40;;;;;;;8.24;57.55;95824.94;5039065;28;20026;-92
2022/09/24 00:11:45;;;;;;;8.45;4.78;;;;;;;8.18;57.65;95813.06;5042064;28;20022;-91
2022/09/24 00:14:10;;;;;;;6.63;4.45;;;;;;;8.15;57.77;95821.38;5026569;28;20033;-91
2022/09/24 00:16:35;;;;;;;8.93;4.60;;;;;;;8.14;58.23;95820.53;5027348;28;20022;-90
2022/09/24 00:19:02;;;;;;;8.75;4.60;;;;;;;8.13;58.25;95821.53;5025931;28;20033;-91
2022/09/24 00:21:32;;;;;;;7.35;4.50;;;;;;;8.06;58.66;95814.28;5030737;28;20033;-92
2022/09/24 00:24:08;;;;;;;6.93;4.10;;;;;;;8.07;58.62;95815.94;5008449;28;20125;-91
2022/09/24 00:26:48;;;;;;;6.28;4.97;;;;;;;8.00;59.29;95811.22;5009229;28;20033;-91
2022/09/24 00:29:19;;;;;;;7.13;4.45;;;;;;;7.98;59.37;95810.50;5024711;28;20085;-91
2022/09/24 00:31:45;;;;;;;7.20;4.57;;;;;;;7.98;59.60;95815.84;4966014;28;1227049;-91
2022/09/24 00:34:10;;;;;;;6.57;4.40;;;;;;;7.96;60.00;95815.19;5026956;28;20137;-91
2022/09/24 00:36:36;;;;;;;8.20;4.97;;;;;;;7.97;60.12;95810.66;5026386;28;20025;-90
2022/09/24 00:39:01;;;;;;;7.05;4.43;;;;;;;7.94;60.55;95809.16;5026495;28;20048;-92
2022/09/24 00:41:29;;;;;;;6.28;4.43;;;;;;;7.91;60.94;95809.44;5025804;28;20129;-91
2022/09/24 00:43:54;;;;;;;7.15;4.32;;;;;;;7.93;61.47;95804.81;5025933;28;20052;-90
2022/09/24 00:46:39;;;;;;;5.38;3.90;;;;;;;7.93;61.37;95803.97;5008569;28;20524;-91
2022/09/24 00:49:15;;;;;;;4.82;3.60;;;;;;;7.87;61.45;95814.25;5025451;28;20021;-91
2022/09/24 00:51:42;;;;;;;6.00;3.60;;;;;;;7.80;61.85;95810.50;5011084;28;20021;-91
2022/09/24 00:54:10;;;;;;;4.70;3.40;;;;;;;7.73;62.08;95807.59;5025683;28;20033;-90
2022/09/24 00:56:36;;;;;;;7.30;3.70;;;;;;;7.73;62.49;95812.09;5009510;28;20100;-91
2022/09/24 00:59:01;;;;;;;5.10;3.63;;;;;;;7.78;62.28;95804.47;5026739;28;20053;-90
2022/09/24 01:01:28;;;;;;;5.88;3.75;;;;;;;7.72;62.23;95802.41;5026404;28;20031;-91
2022/09/24 01:03:54;;;;;;;4.95;3.65;;;;;;;7.64;62.27;95803.16;5010390;28;20041;-91
2022/09/24 01:06:19;;;;;;;6.15;3.83;;;;;;;7.59;62.52;95802.75;5009056;28;20404;-91
2022/09/24 01:08:45;;;;;;;4.80;3.42;;;;;;;7.60;62.22;95807.09;5026171;28;20083;-90
2022/09/24 01:11:38;;;;;;;4.97;3.25;;;;;;;7.62;62.23;95805.13;5010684;28;20075;-90
2022/09/24 01:14:22;;;;;;;8.00;3.60;;;;;;;7.75;61.89;95799.44;5031009;28;20041;-91
2022/09/24 01:17:02;;;;;;;5.32;3.30;;;;;;;7.69;62.05;95798.19;5028289;28;20048;-91
2022/09/24 01:19:59;;;;;;;4.85;3.30;;;;;;;7.75;61.97;95797.63;5029197;28;20057;-91
2022/09/24 01:22:42;;;;;;;6.65;3.60;;;;;;;7.77;61.96;95798.28;5030313;28;20037;-91
2022/09/24 01:25:41;;;;;;;5.15;3.92;;;;;;;7.86;61.64;95795.69;5028102;28;20462;-91
2022/09/24 01:28:39;;;;;;;4.65;3.28;;;;;;;7.81;61.56;95792.63;5029639;28;20108;-92
2022/09/24 01:31:15;;;;;;;6.05;3.35;;;;;;;7.83;61.26;95794.19;5011849;28;20071;-90
2022/09/24 01:33:40;;;;;;;6.45;3.28;;;;;;;7.83;61.80;95801.34;4995605;28;20033;-91
2022/09/24 01:36:07;;;;;;;4.15;3.20;;;;;;;7.90;61.40;95805.09;5012248;28;20030;-92
2022/09/24 01:38:37;;;;;;;4.55;3.28;;;;;;;7.97;61.36;95802.66;5028119;28;20032;-92
2022/09/24 01:41:03;;;;;;;5.03;3.50;;;;;;;7.97;61.10;95795.50;5012098;28;20037;-91
2022/09/24 01:43:29;;;;;;;5.15;3.13;;;;;;;8.01;61.11;95802.19;4996248;28;20030;-92
2022/09/24 01:45:57;;;;;;;6.05;4.00;;;;;;;8.06;60.38;95800.91;5011763;28;20034;-91
2022/09/24 01:48:23;;;;;;;5.60;3.85;;;;;;;8.03;60.65;95802.91;5028917;28;20106;-92
2022/09/24 01:50:57;;;;;;;4.55;3.08;;;;;;;8.05;60.17;95808.09;5014839;28;20021;-91
2022/09/24 01:53:33;;;;;;;4.80;3.70;;;;;;;8.01;60.16;95810.22;5033920;28;20021;-91
2022/09/24 01:56:08;;;;;;;7.57;4.07;;;;;;;7.98;59.53;95804.34;5012983;28;20041;-91
2022/09/24 01:58:36;;;;;;;6.60;3.83;;;;;;;7.89;59.91;95814.09;5012148;28;20359;-92
2022/09/24 02:01:08;;;;;;;6.50;3.90;;;;;;;7.82;59.63;95815.69;5028407;28;20033;-92
2022/09/24 02:03:45;;;;;;;7.28;4.55;;;;;;;7.79;59.44;95817.66;5011912;28;20077;-90
2022/09/24 02:06:18;;;;;;;5.85;3.63;;;;;;;7.73;59.71;95820.09;5013362;28;20049;-94
2022/09/24 02:08:45;;;;;;;8.45;3.80;;;;;;;7.65;60.25;95828.84;5028201;28;20029;-91
2022/09/24 02:11:21;;;;;;;5.80;3.90;;;;;;;7.58;60.77;95827.78;5012371;28;20474;-91
2022/09/24 02:13:57;;;;;;;6.78;3.97;;;;;;;7.53;59.90;95834.41;5012027;28;20033;-91
2022/09/24 02:16:35;;;;;;;5.05;3.30;;;;;;;7.43;60.55;95828.28;5027772;28;20026;-91
2022/09/24 02:19:04;;;;;;;6.15;3.60;;;;;;;7.37;60.97;95839.50;5029742;28;20068;-91
2022/09/24 02:21:29;;;;;;;7.00;4.10;;;;;;;7.37;61.17;95832.34;5010841;28;20147;-92
2022/09/24 02:23:58;;;;;;;6.25;3.63;;;;;;;7.33;61.26;95843.47;4995617;28;20026;-91
2022/09/24 02:26:24;;;;;;;5.38;3.53;;;;;;;7.28;61.55;95836.75;5027539;28;20048;-91
2022/09/24 02:28:49;;;;;;;6.65;3.80;;;;;;;7.30;61.54;95839.28;5012449;28;20026;-91
2022/09/24 02:31:21;;;;;;;5.90;3.80;;;;;;;7.37;60.88;95842.19;5027788;28;20036;-91
2022/09/24 02:36:32;;;;;;;7.22;4.05;;;;;;;7.27;61.17;95848.41;5014593;28;20064;-91
2022/09/24 02:38:57;;;;;;;6.35;3.90;;;;;;;7.29;61.21;95846.44;5011442;28;20033;-92
2022/09/24 02:41:23;;;;;;;7.35;4.13;;;;;;;7.36;60.59;95859.19;5028809;28;20036;-91
2022/09/24 02:43:52;;;;;;;6.47;4.07;;;;;;;7.34;60.84;95847.81;5010530;28;20053;-91
2022/09/24 02:46:17;;;;;;;8.75;5.32;;;;;;;7.23;61.23;95859.50;5012463;28;20089;-91
2022/09/24 02:48:43;;;;;;;9.57;4.40;;;;;;;7.25;61.18;95863.72;5010956;28;20053;-91
2022/09/24 02:51:08;;;;;;;7.88;4.63;;;;;;;7.28;61.06;95862.59;5011203;28;20044;-91
2022/09/24 02:53:34;;;;;;;11.80;4.75;;;;;;;7.29;60.97;95865.13;5027425;28;20041;-91
2022/09/24 02:56:00;;;;;;;10.52;5.30;;;;;;;7.23;60.35;95865.69;5026876;28;20022;-91
2022/09/24 02:58:26;;;;;;;10.98;5.75;;;;;;;7.22;60.06;95871.19;4994915;28;20516;-90
2022/09/24 03:00:53;;;;;;;9.10;5.30;;;;;;;7.23;59.20;95872.84;5026830;28;20461;-90
2022/09/24 03:03:19;;;;;;;15.20;5.20;;;;;;;7.17;59.15;95866.28;4995450;28;20028;-92
2022/09/24 03:05:45;;;;;;;7.13;4.70;;;;;;;7.07;59.92;95866.31;5010619;28;20018;-91
2022/09/24 03:08:11;;;;;;;10.10;5.20;;;;;;;7.08;60.49;95872.50;5027463;28;20037;-91
2022/09/24 03:10:36;;;;;;;7.00;4.88;;;;;;;7.00;59.92;95879.38;5027068;28;20389;-91
2022/09/24 03:13:02;;;;;;;9.32;5.22;;;;;;;6.96;59.72;95862.00;5029226;28;20029;-91
2022/09/24 03:15:28;;;;;;;7.70;5.30;;;;;;;6.93;60.13;95864.94;5027727;28;20163;-92
2022/09/24 03:17:54;;;;;;;7.97;5.30;;;;;;;6.92;59.70;95869.44;5027723;28;20029;-92
2022/09/24 03:20:19;;;;;;;6.78;4.85;;;;;;;6.86;59.90;95869.16;4995663;28;20037;-92
2022/09/24 03:22:48;;;;;;;11.10;5.32;;;;;;;6.78;60.41;95873.38;5028422;28;20178;-92
2022/09/24 03:25:14;;;;;;;14.55;5.47;;;;;;;6.76;60.62;95877.16;5012798;28;20037;-92
2022/09/24 03:27:39;;;;;;;8.90;5.20;;;;;;;6.73;60.72;95877.44;5028104;28;20030;-93
2022/09/24 03:32:49;;;;;;;10.35;5.70;;;;;;;6.62;61.02;95878.44;5027757;28;20137;-90
2022/09/24 03:35:14;;;;;;;7.55;4.97;;;;;;;6.64;59.37;95869.31;5009792;28;20033;-90
2022/09/24 03:37:41;;;;;;;8.32;4.90;;;;;;;6.64;58.65;95876.47;5027196;28;20017;-90
2022/09/24 03:40:07;;;;;;;7.13;4.82;;;;;;;6.57;58.09;95880.69;5026320;28;20037;-91
2022/09/24 03:42:33;;;;;;;7.78;5.20;;;;;;;6.56;58.36;95882.53;5027668;28;20080;-91
2022/09/24 03:44:59;;;;;;;12.20;5.18;;;;;;;6.51;59.02;95879.44;5032485;28;20527;-91
2022/09/24 03:47:24;;;;;;;8.38;5.53;;;;;;;6.45;58.77;95886.16;5031882;28;20049;-91
2022/09/24 03:49:49;;;;;;;7.70;5.30;;;;;;;6.38;59.85;95880.56;5027391;28;20115;-91
2022/09/24 03:52:15;;;;;;;7.22;4.90;;;;;;;6.39;59.95;95886.72;5011240;28;20462;-91
2022/09/24 03:54:41;;;;;;;14.20;5.40;;;;;;;6.35;60.09;95882.66;5009822;28;20029;-91
2022/09/24 03:57:06;;;;;;;9.82;5.80;;;;;;;6.35;60.35;95888.81;5026171;28;20037;-91
2022/09/24 03:59:32;;;;;;;8.73;5.13;;;;;;;6.34;59.90;95891.59;5025939;28;20038;-89
2022/09/24 04:01:57;;;;;;;8.15;4.82;;;;;;;6.31;59.43;95892.75;5026154;28;20404;-91
2022/09/24 04:04:23;;;;;;;7.65;5.28;;;;;;;6.25;58.80;95887.97;5031492;28;20606;-92
2022/09/24 04:06:48;;;;;;;9.73;4.78;;;;;;;6.18;58.77;95895.66;5015622;28;20021;-91
2022/09/24 04:09:14;;;;;;;9.23;5.00;;;;;;;6.13;58.37;95890.75;5026958;28;20029;-90
2022/09/24 04:11:39;;;;;;;9.18;4.90;;;;;;;6.09;58.49;95902.69;4994038;28;20064;-90
2022/09/24 04:14:04;;;;;;;10.25;5.15;;;;;;;6.01;59.69;95889.16;5011975;28;20052;-91
2022/09/24 04:16:30;;;;;;;8.45;5.13;;;;;;;5.96;59.24;95889.59;5030082;28;20076;-91
2022/09/24 04:18:55;;;;;;;10.82;4.90;;;;;;;5.94;60.01;95888.88;5028797;28;20104;-91
2022/09/24 04:21:21;;;;;;;10.45;5.53;;;;;;;5.92;60.47;95899.66;5028497;28;20040;-91
2022/09/24 04:23:47;;;;;;;13.80;5.55;;;;;;;6.01;59.46;95903.31;5011348;28;20484;-91
2022/09/24 04:26:12;;;;;;;11.32;5.47;;;;;;;5.93;60.45;95898.66;5025934;28;20037;-92
2022/09/24 04:28:38;;;;;;;12.00;5.53;;;;;;;6.06;59.99;95905.63;5025133;28;20025;-92
2022/09/24 04:31:03;;;;;;;14.43;6.57;;;;;;;6.03;59.93;95906.69;5027339;28;20033;-91
2022/09/24 04:33:28;;;;;;;15.52;6.53;;;;;;;5.96;60.38;95910.88;5008607;28;20025;-91
2022/09/24 04:35:54;;;;;;;12.82;6.30;;;;;;;6.04;59.98;95910.19;4992694;28;20033;-92
2022/09/24 04:38:20;;;;;;;13.15;6.00;;;;;;;6.04;60.00;95911.09;5008934;28;20034;-91
2022/09/24 04:40:46;;;;;;;10.70;6.32;;;;;;;6.11;60.86;95913.19;5024686;28;20025;-91
2022/09/24 04:43:11;;;;;;;10.32;6.70;;;;;;;6.11;61.44;95913.19;5009260;28;20025;-92
2022/09/24 04:45:37;;;;;;;12.43;5.47;;;;;;;6.12;62.41;95915.72;5027388;28;20029;-91
2022/09/24 04:48:02;;;;;;;20.33;5.20;;;;;;;6.19;62.62;95916.00;5029653;28;20029;-91
2022/09/24 04:50:32;;;;;;;16.15;5.68;;;;;;;6.36;62.22;95922.47;5031698;28;20048;-90
2022/09/24 04:52:57;;;;;;;14.13;5.88;;;;;;;6.40;62.35;95915.06;5033056;28;20022;-90
2022/09/24 04:55:23;;;;;;;15.07;5.32;;;;;;;6.44;62.19;95913.78;5030765;28;20029;-90
2022/09/24 04:57:49;;;;;;;21.65;6.28;;;;;;;6.53;61.84;95915.63;5030494;28;20036;-91
2022/09/24 05:00:16;;;;;;;22.90;5.68;;;;;;;6.57;61.82;95923.31;5029477;28;20033;-92
2022/09/24 05:02:42;;;;;;;20.67;5.80;;;;;;;6.55;61.55;95915.47;5014130;28;20033;-89
2022/09/24 05:05:07;;;;;;;16.98;5.70;;;;;;;6.50;61.88;95917.69;5049295;28;20044;-91
2022/09/24 05:07:33;;;;;;;34.58;6.13;;;;;;;6.63;61.85;95917.44;5050372;28;20060;-91
2022/09/24 05:09:59;;;;;;;16.98;5.68;;;;;;;6.54;61.88;95911.97;5037736;28;20037;-92
2022/09/24 05:12:24;;;;;;;23.63;5.70;;;;;;;6.67;61.43;95910.84;5037144;28;20025;-92
2022/09/24 05:14:50;;;;;;;16.50;5.60;;;;;;;6.82;61.10;95910.44;5037452;28;20029;-91
2022/09/24 05:17:15;;;;;;;14.75;5.40;;;;;;;6.93;60.67;95918.28;5039086;28;20498;-91
2022/09/24 05:19:40;;;;;;;25.25;6.32;;;;;;;7.00;60.66;95916.72;5032076;28;20030;-91
2022/09/24 05:22:06;;;;;;;24.40;6.93;;;;;;;6.98;60.29;95921.34;5034493;28;20022;-92
2022/09/24 05:24:31;;;;;;;23.90;7.20;;;;;;;7.02;60.41;95919.22;5029587;28;20500;-90
2022/09/24 05:27:09;;;;;;;20.13;5.85;;;;;;;7.22;60.03;95919.19;5029594;28;20017;-92
2022/09/24 05:29:42;;;;;;;24.98;7.68;;;;;;;7.40;59.24;95924.63;5029489;28;20039;-91
2022/09/24 05:32:09;;;;;;;19.95;5.60;;;;;;;7.52;59.13;95930.63;5013200;28;20060;-91
2022/09/24 05:34:34;;;;;;;31.77;7.00;;;;;;;7.65;58.81;95933.84;5028302;28;20084;-92
2022/09/24 05:37:00;;;;;;;32.58;7.45;;;;;;;7.71;58.42;95937.72;5035073;28;20048;-92
2022/09/24 05:39:26;;;;;;;37.75;7.78;;;;;;;7.75;58.57;95938.28;5025585;28;20110;-91
2022/09/24 05:41:52;;;;;;;44.70;8.05;;;;;;;7.87;58.06;95936.25;5034452;28;20034;-90
2022/09/24 05:44:19;;;;;;;33.58;7.57;;;;;;;8.09;58.33;95940.38;5029755;28;20593;-89
2022/09/24 05:46:45;;;;;;;33.90;9.15;;;;;;;8.13;58.27;95940.91;5011896;28;20431;-91
2022/09/24 05:49:11;;;;;;;20.13;7.85;;;;;;;8.07;57.61;95941.50;5012367;28;20497;-90
2022/09/24 05:51:36;;;;;;;10.15;6.50;;;;;;;8.25;57.60;95934.34;5029661;28;20017;-93
2022/09/24 05:54:02;;;;;;;13.50;7.90;;;;;;;8.46;56.49;95943.13;5021703;28;20045;-91
2022/09/24 05:56:27;;;;;;;13.40;9.07;;;;;;;8.56;56.57;95945.75;5038302;28;20033;-91
2022/09/24 05:58:53;;;;;;;15.45;9.85;;;;;;;8.58;56.41;95933.91;5029168;28;20493;-91
2022/09/24 06:01:19;;;;;;;15.38;10.88;;;;;;;8.41;57.13;95941.72;5027598;28;20083;-91
2022/09/24 06:03:44;;;;;;;17.83;10.75;;;;;;;8.44;57.44;95940.59;5028434;28;20033;-90
2022/09/24 06:06:10;;;;;;;14.73;9.55;;;;;;;8.47;57.48;95939.44;5029048;28;20018;-92
2022/09/24 06:08:35;;;;;;;26.83;14.93;;;;;;;8.47;57.97;95952.81;5011922;28;20041;-92
2022/09/24 06:11:01;;;;;;;31.02;13.40;;;;;;;8.66;57.87;95941.16;5028690;28;20476;-91
2022/09/24 06:13:27;;;;;;;36.50;12.15;;;;;;;8.83;57.16;95952.03;5027413;28;20029;-91
2022/09/24 06:16:00;;;;;;;50.38;12.18;;;;;;;8.91;57.27;95949.41;5028273;28;20037;-91
2022/09/24 06:18:25;;;;;;;56.38;10.00;;;;;;;9.12;57.56;95948.25;5010222;28;20026;-92
2022/09/24 06:20:51;;;;;;;48.70;11.23;;;;;;;9.08;57.29;95954.88;5011696;28;20067;-92
2022/09/24 06:23:16;;;;;;;35.15;8.73;;;;;;;9.02;58.38;95954.53;5028201;28;20026;-90
2022/09/24 06:25:42;;;;;;;33.95;7.75;;;;;;;9.06;57.97;95956.91;5013331;28;20033;-90
2022/09/24 06:28:08;;;;;;;34.67;8.98;;;;;;;9.15;57.78;95956.81;5032095;28;20026;-91
2022/09/24 06:30:37;;;;;;;28.92;7.28;;;;;;;9.33;57.44;95955.94;5010558;28;20045;-90
2022/09/24 06:33:12;;;;;;;27.33;8.07;;;;;;;9.34;57.57;95960.28;5011612;28;20068;-92
2022/09/24 06:35:41;;;;;;;26.80;7.85;;;;;;;9.29;57.76;95962.59;5028407;28;20439;-89
2022/09/24 06:38:09;;;;;;;16.08;6.57;;;;;;;9.36;57.37;95957.47;5015177;28;20549;-91
2022/09/24 06:40:34;;;;;;;9.75;5.90;;;;;;;9.45;58.05;95955.66;5011572;28;20030;-91
2022/09/24 06:43:00;;;;;;;12.43;6.25;;;;;;;9.71;56.77;95953.00;4995646;28;20484;-91
2022/09/24 06:45:26;;;;;;;10.48;5.70;;;;;;;9.90;56.16;95953.75;5028808;28;20048;-91
2022/09/24 06:47:55;;;;;;;8.45;4.95;;;;;;;10.09;55.51;95958.03;4993442;28;20419;-91
2022/09/24 06:50:21;;;;;;;13.38;5.15;;;;;;;10.32;55.42;95956.59;5011459;28;20026;-92
2022/09/24 06:52:46;;;;;;;10.45;4.68;;;;;;;10.46;54.15;95950.66;5026556;28;20022;-90
2022/09/24 06:55:12;;;;;;;12.85;4.60;;;;;;;10.68;53.32;95945.69;5011027;28;20029;-91
2022/09/24 06:57:37;;;;;;;11.23;4.75;;;;;;;10.72;53.08;95951.56;5009661;28;20021;-90
2022/09/24 07:00:03;;;;;;;14.57;5.28;;;;;;;10.64;53.55;95955.03;5027160;28;20451;-91
2022/09/24 07:02:30;;;;;;;12.20;5.75;;;;;;;10.80;52.95;95948.03;5027949;28;20438;-91
2022/09/24 07:04:55;;;;;;;17.48;5.60;;;;;;;10.85;53.10;95954.59;5027617;28;20108;-91
2022/09/24 07:07:31;;;;;;;31.30;5.97;;;;;;;10.72;53.13;95954.25;5027095;28;20529;-90
2022/09/24 07:09:58;;;;;;;18.60;5.03;;;;;;;11.07;52.54;95954.09;5010752;28;20551;-90
2022/09/24 07:12:23;;;;;;;11.02;4.90;;;;;;;11.30;51.83;95954.25;5011268;28;20026;-89
2022/09/24 07:14:48;;;;;;;9.57;5.60;;;;;;;11.13;52.68;95958.78;5025528;28;20335;-90
2022/09/24 07:17:14;;;;;;;20.15;6.45;;;;;;;11.44;52.25;95951.91;5027446;28;20029;-90
2022/09/24 07:19:40;;;;;;;21.42;6.88;;;;;;;11.34;51.99;95950.25;5025947;28;20112;-90
2022/09/24 07:22:06;;;;;;;13.68;6.35;;;;;;;11.48;51.58;95951.41;5010222;28;20049;-90
2022/09/24 07:24:31;;;;;;;14.77;6.70;;;;;;;11.71;51.30;95952.53;5026251;28;20057;-90
2022/09/24 07:26:57;;;;;;;21.00;7.43;;;;;;;11.84;50.77;95952.00;5026886;28;20026;-91
2022/09/24 07:29:22;;;;;;;18.10;6.07;;;;;;;11.90;50.48;95948.63;5027168;28;20029;-91
2022/09/24 07:31:47;;;;;;;12.68;6.30;;;;;;;11.40;51.98;95947.91;5026299;28;20041;-91
2022/09/24 07:34:13;;;;;;;14.80;6.45;;;;;;;11.36;52.19;95950.06;5029361;28;20044;-90
2022/09/24 07:36:39;;;;;;;17.42;5.82;;;;;;;11.47;52.00;95949.72;5030177;28;20036;-90
2022/09/24 07:39:05;;;;;;;17.88;5.82;;;;;;;11.41;51.86;95939.66;5028560;28;20037;-91
2022/09/24 07:41:30;;;;;;;15.85;5.28;;;;;;;11.90;50.60;95943.25;5028575;28;20063;-92
2022/09/24 07:43:56;;;;;;;9.88;4.85;;;;;;;11.91;50.53;95944.94;4994255;28;20029;-90
2022/09/24 07:46:21;;;;;;;12.80;5.50;;;;;;;11.80;50.72;95942.63;5010199;28;20030;-90
2022/09/24 07:48:49;;;;;;;12.35;5.30;;;;;;;11.89;50.27;95941.56;5009063;28;20033;-90
2022/09/24 07:51:15;;;;;;;10.32;4.43;;;;;;;12.26;49.50;95935.75;5010820;28;20040;-91
2022/09/24 07:53:40;;;;;;;10.90;4.65;;;;;;;12.45;49.46;95926.41;5028745;28;20026;-90
2022/09/24 07:56:06;;;;;;;17.30;4.95;;;;;;;12.49;49.04;95928.56;5015883;28;20079;-91
2022/09/24 07:58:31;;;;;;;8.20;5.15;;;;;;;12.48;48.18;95931.41;5032918;28;20033;-92
2022/09/24 08:00:57;;;;;;;10.10;4.88;;;;;;;12.34;49.26;95930.31;5032606;28;20045;-91
2022/09/24 08:03:23;;;;;;;12.10;5.35;;;;;;;12.26;49.75;95933.06;5009645;28;20048;-91
2022/09/24 08:05:48;;;;;;;10.93;4.78;;;;;;;12.51;49.24;95925.69;5027403;28;20025;-91
2022/09/24 08:08:14;;;;;;;10.73;5.28;;;;;;;12.67;48.79;95924.75;5010178;28;20099;-91
2022/09/24 08:10:40;;;;;;;12.55;5.45;;;;;;;12.57;49.13;95933.06;5036538;28;20033;-91
2022/09/24 08:13:06;;;;;;;10.15;5.38;;;;;;;12.45;49.35;95927.25;5012996;28;20022;-91
2022/09/24 08:15:31;;;;;;;11.57;5.57;;;;;;;12.56;49.36;95926.00;5012425;28;20044;-91
2022/09/24 08:18:03;;;;;;;13.73;5.72;;;;;;;12.83;48.70;95920.28;5027184;28;20025;-91
2022/09/24 08:20:29;;;;;;;12.43;6.57;;;;;;;13.18;47.95;95927.94;5028917;28;20029;-94
2022/09/24 08:23:02;;;;;;;9.13;5.57;;;;;;;12.80;48.03;95920.66;5030989;28;20495;-90
2022/09/24 08:25:27;;;;;;;10.98;5.57;;;;;;;13.20;47.24;95913.25;5030322;28;20052;-90
2022/09/24 08:27:53;;;;;;;7.40;5.32;;;;;;;13.17;47.72;95916.31;5030552;28;20476;-91
2022/09/24 08:30:20;;;;;;;13.77;5.93;;;;;;;12.89;48.18;95911.50;5013149;28;20488;-89
2022/09/24 08:32:47;;;;;;;12.43;5.55;;;;;;;12.83;48.03;95909.53;5028735;28;20042;-89
2022/09/24 08:35:14;;;;;;;11.93;6.28;;;;;;;12.96;48.34;95904.34;5033480;28;20029;-90
2022/09/24 08:37:39;;;;;;;7.15;4.88;;;;;;;13.20;47.43;95905.16;5028726;28;20030;-88
2022/09/24 08:40:06;;;;;;;14.18;5.35;;;;;;;13.53;47.04;95903.22;5031470;28;20095;-90
2022/09/24 08:42:40;;;;;;;9.52;4.85;;;;;;;13.83;46.12;95905.94;5029762;28;20025;-89
2022/09/24 08:48:23;;;;;;;6.05;4.15;;;;;;;14.09;45.38;95896.53;5046880;28;20037;-90
2022/09/24 08:51:00;;;;;;;16.38;6.70;;;;;;;14.19;44.30;95898.94;5011567;28;20500;-91
2022/09/24 08:53:31;;;;;;;10.38;6.10;;;;;;;14.21;45.09;95888.78;5013610;28;20120;-91
2022/09/24 08:56:00;;;;;;;12.48;6.15;;;;;;;14.25;45.42;95884.69;5030373;28;20036;-90
2022/09/24 08:58:37;;;;;;;16.60;7.22;;;;;;;14.07;46.05;95882.41;5029232;28;20168;-91
2022/09/24 09:01:05;;;;;;;14.32;8.57;;;;;;;14.00;46.28;95886.88;5031684;28;20025;-91
2022/09/24 09:03:49;;;;;;;8.68;6.18;;;;;;;13.97;45.87;95882.69;5027876;28;20180;-91
2022/09/24 09:06:40;;;;;;;11.40;6.28;;;;;;;14.30;45.11;95879.56;5030649;28;20036;-88
2022/09/24 09:09:11;;;;;;;8.70;5.47;;;;;;;14.43;44.81;95876.19;5029570;28;20052;-93
2022/09/24 09:11:37;;;;;;;9.90;4.75;;;;;;;14.68;45.15;95878.53;5028033;28;20022;-91
2022/09/24 09:14:16;;;;;;;12.93;5.68;;;;;;;15.00;45.67;95878.25;5029488;28;20527;-92
2022/09/24 09:17:02;;;;;;;7.88;4.03;;;;;;;15.19;42.42;95871.34;5011200;28;20029;-91
2022/09/24 09:19:32;;;;;;;7.80;3.88;;;;;;;15.23;42.44;95870.94;5012349;28;20033;-90
2022/09/24 09:22:06;;;;;;;5.80;4.13;;;;;;;15.48;41.83;95871.31;5030961;28;20484;-90
2022/09/24 09:24:55;;;;;;;6.80;4.30;;;;;;;15.56;42.53;95863.06;5033683;28;20045;-91
2022/09/24 09:27:21;;;;;;;15.02;5.18;;;;;;;15.66;42.47;95856.47;5020944;28;20047;-91
2022/09/24 09:29:55;;;;;;;7.45;3.60;;;;;;;15.74;41.42;95855.47;5013843;28;20025;-92
2022/09/24 09:32:23;;;;;;;9.77;6.03;;;;;;;15.69;41.90;95856.91;5015184;28;20516;-91
2022/09/24 09:34:57;;;;;;;9.50;4.22;;;;;;;15.14;40.30;95852.16;5031469;28;20044;-92
2022/09/24 09:37:41;;;;;;;5.15;3.22;;;;;;;14.99;40.33;95852.28;5030065;28;20120;-92
2022/09/24 09:40:09;;;;;;;6.32;3.25;;;;;;;15.36;41.18;95845.88;5016108;28;20045;-92
2022/09/24 09:42:35;;;;;;;6.60;3.55;;;;;;;15.65;41.15;95831.28;5034466;28;20106;-93
2022/09/24 09:45:02;;;;;;;9.65;5.32;;;;;;;15.98;38.99;95826.28;5032242;28;20137;-92
2022/09/24 09:47:40;;;;;;;6.93;3.90;;;;;;;15.62;39.56;95825.47;5033677;28;20507;-92
2022/09/24 09:50:27;;;;;;;7.57;3.50;;;;;;;15.45;40.42;95815.81;4998252;28;20034;-91
2022/09/24 09:52:52;;;;;;;7.32;3.47;;;;;;;15.70;40.60;95806.38;5031460;28;20493;-91
2022/09/24 09:55:33;;;;;;;5.43;3.30;;;;;;;15.94;39.04;95804.19;5031785;28;20481;-91
2022/09/24 09:58:31;;;;;;;3.95;2.80;;;;;;;15.85;37.26;95806.22;5033269;28;20040;-91
2022/09/24 10:01:13;;;;;;;4.72;2.65;;;;;;;15.69;36.91;95800.13;5002534;28;20037;-92
2022/09/24 10:03:51;;;;;;;7.95;2.70;;;;;;;15.65;36.22;95798.84;4999082;28;20453;-93
2022/09/24 10:06:32;;;;;;;6.18;2.85;;;;;;;15.37;36.03;95797.03;5030834;28;20044;-92
2022/09/24 10:09:20;;;;;;;5.00;2.58;;;;;;;15.42;36.41;95789.19;4995775;28;20048;-91
2022/09/24 10:11:46;;;;;;;5.70;2.45;;;;;;;15.60;36.22;95777.00;5014942;28;20483;-92
2022/09/24 10:14:13;;;;;;;5.10;2.20;;;;;;;15.49;34.26;95780.28;5030755;28;20040;-91
2022/09/24 10:16:43;;;;;;;3.55;2.28;;;;;;;15.31;35.01;95773.53;5011983;28;20034;-91
2022/09/24 10:19:18;;;;;;;5.70;2.30;;;;;;;15.36;34.88;95779.16;5034143;28;20075;-90
2022/09/24 10:21:43;;;;;;;3.60;2.25;;;;;;;15.71;33.71;95794.53;5017099;28;20037;-92
2022/09/24 10:24:20;;;;;;;3.03;2.17;;;;;;;15.88;33.48;95786.88;5034140;28;20083;-94
2022/09/24 10:26:45;;;;;;;3.17;1.95;;;;;;;15.75;33.79;95776.84;5000067;28;20035;-90
2022/09/24 10:31:58;;;;;;;3.50;2.10;;;;;;;15.77;33.97;95772.09;5018281;28;20495;-93
2022/09/24 10:34:25;;;;;;;3.28;2.20;;;;;;;15.75;34.00;95771.44;5031899;28;20029;-93
2022/09/24 10:36:52;;;;;;;4.63;2.30;;;;;;;15.85;34.50;95776.47;5033769;28;20022;-92
2022/09/24 10:39:17;;;;;;;3.00;2.20;;;;;;;16.08;35.35;95778.06;5030869;28;20033;-92
2022/09/24 10:41:46;;;;;;;3.38;2.08;;;;;;;16.23;33.33;95772.50;5033088;28;20021;-91
2022/09/24 10:44:12;;;;;;;2.75;2.00;;;;;;;16.29;32.68;95770.81;5031163;28;20055;-91
2022/09/24 10:46:43;;;;;;;3.47;2.08;;;;;;;16.48;32.79;95771.03;5012926;28;20029;-93
2022/09/24 10:49:32;;;;;;;3.35;2.35;;;;;;;16.35;33.07;95767.28;5031373;28;20037;-93
2022/09/24 10:51:58;;;;;;;4.15;2.30;;;;;;;16.44;32.35;95771.47;5011810;28;20026;-91
2022/09/24 10:54:47;;;;;;;4.00;2.20;;;;;;;16.49;33.33;95770.03;5030693;28;20037;-93
2022/09/24 10:57:33;;;;;;;3.65;2.03;;;;;;;16.54;32.31;95783.78;5028398;28;20026;-92
2022/09/24 11:00:03;;;;;;;2.65;2.08;;;;;;;16.50;31.87;95775.22;5028843;28;20143;-90
2022/09/24 11:02:34;;;;;;;4.30;2.20;;;;;;;17.05;34.51;95773.38;5030819;28;20596;-91
2022/09/24 11:05:29;;;;;;;5.25;2.10;;;;;;;17.28;32.21;95777.56;5028913;28;20084;-92
2022/09/24 11:08:08;;;;;;;4.15;2.17;;;;;;;17.16;31.75;95767.34;5012291;28;20033;-92
2022/09/24 11:10:43;;;;;;;5.15;2.20;;;;;;;17.18;32.05;95762.53;5028956;28;20047;-92
2022/09/24 11:13:11;;;;;;;3.38;2.10;;;;;;;17.34;31.58;95774.00;5030346;28;20501;-92
2022/09/24 11:15:53;;;;;;;4.28;2.60;;;;;;;17.16;31.97;95778.19;5031630;28;20037;-91
2022/09/24 11:18:45;;;;;;;3.78;2.28;;;;;;;17.18;31.97;95759.00;5027859;28;20026;-93
2022/09/24 11:21:41;;;;;;;4.00;1.98;;;;;;;17.57;31.01;95758.28;5030318;28;20459;-91
2022/09/24 11:24:49;;;;;;;3.03;2.15;;;;;;;17.66;31.30;95749.72;5041094;28;20030;-90
2022/09/24 11:27:34;;;;;;;4.10;2.45;;;;;;;18.00;30.50;95741.44;5030927;28;20037;-91
2022/09/24 11:30:19;;;;;;;2.78;2.00;;;;;;;17.97;30.81;95738.31;5028465;28;20443;-90
2022/09/24 11:33:08;;;;;;;3.10;2.20;;;;;;;17.99;30.72;95739.75;5029351;28;20037;-92
2022/09/24 11:36:04;;;;;;;3.33;2.20;;;;;;;18.12;30.86;95725.31;5011313;28;20021;-93
2022/09/24 11:38:40;;;;;;;2.83;2.08;;;;;;;17.89;29.44;95723.91;5033285;28;20029;-91
2022/09/24 11:41:12;;;;;;;4.93;2.08;;;;;;;17.93;30.95;95727.03;5032337;28;20021;-91
2022/09/24 11:43:54;;;;;;;5.85;2.40;;;;;;;17.85;31.46;95720.00;5030390;28;20021;-92
2022/09/24 11:46:46;;;;;;;2.90;2.20;;;;;;;18.12;30.93;95722.59;5030703;28;20025;-92
2022/09/24 11:49:17;;;;;;;2.97;2.30;;;;;;;18.22;30.87;95729.41;5027769;28;20064;-93
2022/09/24 11:51:51;;;;;;;4.43;2.30;;;;;;;18.53;30.90;95727.75;5036247;28;20029;-91
2022/09/24 11:54:32;;;;;;;3.70;2.00;;;;;;;18.63;30.27;95736.25;5018724;28;20541;-90
2022/09/24 11:57:19;;;;;;;4.10;2.20;;;;;;;18.76;29.81;95713.59;5011653;28;20026;-93
2022/09/24 11:59:56;;;;;;;5.32;2.33;;;;;;;18.82;30.02;95713.72;5030516;28;20181;-91